Chrisanthi — SX7108 — position and weather

sailwx.info

Track history (hours):
 
Tides and Currents Weather Stations Pressure Air Temp Water Temp Dewpoint Dewpoint Depression Visibility Wind Speed Wind Dir Waves Ship Positions

Chrisanthi

Last reported at 2014-Sep-21 05:33 UTC. Time now 2014-Sep-21 06:06 UTC.
Position N 36°56' E 025°36'.

Length 56 m; draft 3.9 m.

Type: Tanker. MMSI: 237009100.

Date/timePositionNaut miles runAvg speedWind from/ knotsBaromVisibWave heightAir tempDewpointWater temp
2014-Sep-21 05:33N 36°56' E 025°36'0 0.0
2014-Sep-21 04:34N 36°56' E 025°36'0 0.0
2014-Sep-21 03:33N 36°56' E 025°36'0 0.0
2014-Sep-21 02:33N 36°56' E 025°36'0 0.0
2014-Sep-21 01:34N 36°56' E 025°36'0 0.0
2014-Sep-21 00:33N 36°56' E 025°36'0 0.0
2014-Sep-20 23:33N 36°56' E 025°36'0 0.0
2014-Sep-20 22:33N 36°56' E 025°36'0 0.0
2014-Sep-20 21:33N 36°56' E 025°36'2 1.8
2014-Sep-20 20:33N 36°55' E 025°34'10 9.8
2014-Sep-20 19:33N 36°51' E 025°23'9 9.5
2014-Sep-20 18:33N 36°45' E 025°14'2 2.1
2014-Sep-20 17:33N 36°43' E 025°16'0 0.0
2014-Sep-20 16:33N 36°43' E 025°16'6 5.9
2014-Sep-20 15:34N 36°38' E 025°17'1010.3
2014-Sep-20 14:33N 36°28' E 025°22'6 5.6
2014-Sep-20 13:33N 36°23' E 025°26'0 0.0
2014-Sep-20 12:33N 36°23' E 025°26'0 0.0
2014-Sep-20 11:33N 36°23' E 025°26'0 0.0
2014-Sep-20 10:33N 36°23' E 025°26'0 0.0
2014-Sep-20 09:33N 36°23' E 025°26'0 0.0
2014-Sep-20 08:33N 36°23' E 025°26'0 0.0
2014-Sep-20 07:33N 36°23' E 025°26'0 0.4
2014-Sep-20 06:33N 36°24' E 025°26'8 8.2
2014-Sep-20 05:33N 36°32' E 025°25'1110.6
2014-Sep-20 04:33N 36°38' E 025°36'1010.4
2014-Sep-20 03:33N 36°43' E 025°47'2110.5
2014-Sep-20 01:33N 36°52' E 026°11'  
2014-Sep-17 04:32N 37°19' E 026°37'36 2.5
2014-Sep-16 14:04N 36°55' E 027°10'26 1.2
2014-Sep-15 16:07N 36°39' E 027°36'610.1
2014-Sep-15 15:33N 36°39' E 027°28'45 3.4
2014-Sep-15 02:33N 37°00' E 026°39'1010.1
2014-Sep-15 01:33N 37°03' E 026°27'1110.6
2014-Sep-15 00:34N 37°05' E 026°14'1010.4
2014-Sep-14 23:33N 37°08' E 026°02'1010.2
2014-Sep-14 22:33N 37°10' E 025°49'1010.0
2014-Sep-14 21:33N 37°12' E 025°37'9 8.7
2014-Sep-14 20:33N 37°10' E 025°26'5 5.2
2014-Sep-14 19:33N 37°06' E 025°22'0 0.0
2014-Sep-14 18:33N 37°06' E 025°22'0 0.0
2014-Sep-14 17:33N 37°06' E 025°22'0 0.0
2014-Sep-14 16:33N 37°06' E 025°22'0 0.0
2014-Sep-14 15:33N 37°06' E 025°22'5 5.1
2014-Sep-14 14:33N 37°10' E 025°18'9 9.0
2014-Sep-14 13:34N 37°06' E 025°08'1 1.4
2014-Sep-14 12:33N 37°05' E 025°09'0 0.0
2014-Sep-14 11:34N 37°05' E 025°09'0 0.0
2014-Sep-14 10:19N 37°05' E 025°09'0 0.0
2014-Sep-14 09:22N 37°05' E 025°09'1 0.3
2014-Sep-14 07:32N 37°05' E 025°08'2 1.6
2014-Sep-14 06:33N 37°05' E 025°07'10 9.9
2014-Sep-14 05:33N 36°59' E 024°57'9 9.4
2014-Sep-14 04:33N 36°51' E 025°03'1110.5
2014-Sep-14 03:33N 36°44' E 025°13'3 2.6
2014-Sep-14 02:33N 36°43' E 025°16'0 0.0
2014-Sep-14 01:34N 36°43' E 025°16'0 0.0
2014-Sep-13 21:34N 36°43' E 025°16'0 0.0
2014-Sep-13 20:33N 36°43' E 025°16'0 0.0
2014-Sep-13 19:32N 36°43' E 025°16'0 0.0
2014-Sep-13 18:33N 36°43' E 025°16'5 5.4
2014-Sep-13 17:33N 36°38' E 025°17'1010.3
2014-Sep-13 16:33N 36°28' E 025°21'6 6.2
2014-Sep-13 15:33N 36°23' E 025°26'0 0.0
2014-Sep-13 14:33N 36°23' E 025°26'0 0.0
2014-Sep-13 13:33N 36°23' E 025°26'0 0.0
2014-Sep-13 12:33N 36°23' E 025°26'0 0.0
2014-Sep-13 11:33N 36°23' E 025°26'0 0.0
2014-Sep-13 10:33N 36°23' E 025°26'0 0.1
2014-Sep-13 09:33N 36°23' E 025°26'5 5.0
2014-Sep-13 08:33N 36°27' E 025°22'9 9.2
2014-Sep-13 07:33N 36°32' E 025°32'1110.7
2014-Sep-13 06:33N 36°37' E 025°44'1110.5
2014-Sep-13 05:33N 36°42' E 025°55'1410.1
2014-Sep-13 04:11N 36°49' E 026°10'710.2
2014-Sep-13 03:32N 36°52' E 026°17'10 9.9
2014-Sep-13 02:33N 36°58' E 026°27'9 9.6
2014-Sep-13 01:33N 37°05' E 026°35'1010.0
2014-Sep-13 00:34N 37°14' E 026°40'6 5.4
2014-Sep-12 23:31N 37°18' E 026°46'0 0.0
2014-Sep-12 22:33N 37°18' E 026°46'0 0.0
2014-Sep-12 21:17N 37°18' E 026°46'1 1.1
2014-Sep-12 20:28N 37°17' E 026°45'1010.2
2014-Sep-12 19:31N 37°11' E 026°54'  
Track history (hours):
 
Tides and Currents Weather Stations Pressure Air Temp Water Temp Dewpoint Dewpoint Depression Visibility Wind Speed Wind Dir Waves Ship Positions

Chrisanthi

Last reported at 2014-Sep-21 05:33 UTC. Time now 2014-Sep-21 06:06 UTC.
Position N 36°56' E 025°36'.

Length 56 m; draft 3.9 m.

Type: Tanker. MMSI: 237009100.

Date/timePositionNaut miles runAvg speedWind from/ knotsBaromVisibWave heightAir tempDewpointWater temp
2014-Sep-21 05:33N 36°56' E 025°36'0 0.0
2014-Sep-21 04:34N 36°56' E 025°36'0 0.0
2014-Sep-21 03:33N 36°56' E 025°36'0 0.0
2014-Sep-21 02:33N 36°56' E 025°36'0 0.0
2014-Sep-21 01:34N 36°56' E 025°36'0 0.0
2014-Sep-21 00:33N 36°56' E 025°36'0 0.0
2014-Sep-20 23:33N 36°56' E 025°36'0 0.0
2014-Sep-20 22:33N 36°56' E 025°36'0 0.0
2014-Sep-20 21:33N 36°56' E 025°36'2 1.8
2014-Sep-20 20:33N 36°55' E 025°34'10 9.8
2014-Sep-20 19:33N 36°51' E 025°23'9 9.5
2014-Sep-20 18:33N 36°45' E 025°14'2 2.1
2014-Sep-20 17:33N 36°43' E 025°16'0 0.0
2014-Sep-20 16:33N 36°43' E 025°16'6 5.9
2014-Sep-20 15:34N 36°38' E 025°17'1010.3
2014-Sep-20 14:33N 36°28' E 025°22'6 5.6
2014-Sep-20 13:33N 36°23' E 025°26'0 0.0
2014-Sep-20 12:33N 36°23' E 025°26'0 0.0
2014-Sep-20 11:33N 36°23' E 025°26'0 0.0
2014-Sep-20 10:33N 36°23' E 025°26'0 0.0
2014-Sep-20 09:33N 36°23' E 025°26'0 0.0
2014-Sep-20 08:33N 36°23' E 025°26'0 0.0
2014-Sep-20 07:33N 36°23' E 025°26'0 0.4
2014-Sep-20 06:33N 36°24' E 025°26'8 8.2
2014-Sep-20 05:33N 36°32' E 025°25'1110.6
2014-Sep-20 04:33N 36°38' E 025°36'1010.4
2014-Sep-20 03:33N 36°43' E 025°47'2110.5
2014-Sep-20 01:33N 36°52' E 026°11'  
2014-Sep-17 04:32N 37°19' E 026°37'36 2.5
2014-Sep-16 14:04N 36°55' E 027°10'26 1.2
2014-Sep-15 16:07N 36°39' E 027°36'610.1
2014-Sep-15 15:33N 36°39' E 027°28'45 3.4
2014-Sep-15 02:33N 37°00' E 026°39'1010.1
2014-Sep-15 01:33N 37°03' E 026°27'1110.6
2014-Sep-15 00:34N 37°05' E 026°14'1010.4
2014-Sep-14 23:33N 37°08' E 026°02'1010.2
2014-Sep-14 22:33N 37°10' E 025°49'1010.0
2014-Sep-14 21:33N 37°12' E 025°37'9 8.7
2014-Sep-14 20:33N 37°10' E 025°26'5 5.2
2014-Sep-14 19:33N 37°06' E 025°22'0 0.0
2014-Sep-14 18:33N 37°06' E 025°22'0 0.0
2014-Sep-14 17:33N 37°06' E 025°22'0 0.0
2014-Sep-14 16:33N 37°06' E 025°22'0 0.0
2014-Sep-14 15:33N 37°06' E 025°22'5 5.1
2014-Sep-14 14:33N 37°10' E 025°18'9 9.0
2014-Sep-14 13:34N 37°06' E 025°08'1 1.4
2014-Sep-14 12:33N 37°05' E 025°09'0 0.0
2014-Sep-14 11:34N 37°05' E 025°09'0 0.0
2014-Sep-14 10:19N 37°05' E 025°09'0 0.0
2014-Sep-14 09:22N 37°05' E 025°09'1 0.3
2014-Sep-14 07:32N 37°05' E 025°08'2 1.6
2014-Sep-14 06:33N 37°05' E 025°07'10 9.9
2014-Sep-14 05:33N 36°59' E 024°57'9 9.4
2014-Sep-14 04:33N 36°51' E 025°03'1110.5
2014-Sep-14 03:33N 36°44' E 025°13'3 2.6
2014-Sep-14 02:33N 36°43' E 025°16'0 0.0
2014-Sep-14 01:34N 36°43' E 025°16'0 0.0
2014-Sep-13 21:34N 36°43' E 025°16'0 0.0
2014-Sep-13 20:33N 36°43' E 025°16'0 0.0
2014-Sep-13 19:32N 36°43' E 025°16'0 0.0
2014-Sep-13 18:33N 36°43' E 025°16'5 5.4
2014-Sep-13 17:33N 36°38' E 025°17'1010.3
2014-Sep-13 16:33N 36°28' E 025°21'6 6.2
2014-Sep-13 15:33N 36°23' E 025°26'0 0.0
2014-Sep-13 14:33N 36°23' E 025°26'0 0.0
2014-Sep-13 13:33N 36°23' E 025°26'0 0.0
2014-Sep-13 12:33N 36°23' E 025°26'0 0.0
2014-Sep-13 11:33N 36°23' E 025°26'0 0.0
2014-Sep-13 10:33N 36°23' E 025°26'0 0.1
2014-Sep-13 09:33N 36°23' E 025°26'5 5.0
2014-Sep-13 08:33N 36°27' E 025°22'9 9.2
2014-Sep-13 07:33N 36°32' E 025°32'1110.7
2014-Sep-13 06:33N 36°37' E 025°44'1110.5
2014-Sep-13 05:33N 36°42' E 025°55'1410.1
2014-Sep-13 04:11N 36°49' E 026°10'710.2
2014-Sep-13 03:32N 36°52' E 026°17'10 9.9
2014-Sep-13 02:33N 36°58' E 026°27'9 9.6
2014-Sep-13 01:33N 37°05' E 026°35'1010.0
2014-Sep-13 00:34N 37°14' E 026°40'6 5.4
2014-Sep-12 23:31N 37°18' E 026°46'0 0.0
2014-Sep-12 22:33N 37°18' E 026°46'0 0.0
2014-Sep-12 21:17N 37°18' E 026°46'1 1.1
2014-Sep-12 20:28N 37°17' E 026°45'1010.2
2014-Sep-12 19:31N 37°11' E 026°54'  

Dump ship's entire track history